sensor_id;sensor_type;location;lat;lon;timestamp;temperature;humidity
80964;DHT22;70425;59.322;13.486;2023-11-19T01:41:06;-5.30;99.90
80964;DHT22;70425;59.322;13.486;2023-11-19T02:14:03;-5.50;99.90
80964;DHT22;70425;59.322;13.486;2023-11-19T02:16:52;-5.50;99.90
80964;DHT22;70425;59.322;13.486;2023-11-19T02:19:40;-5.50;99.90
80964;DHT22;70425;59.322;13.486;2023-11-19T02:22:29;-5.50;99.90
80964;DHT22;70425;59.322;13.486;2023-11-19T02:40:28;-5.40;99.90
80964;DHT22;70425;59.322;13.486;2023-11-19T02:43:16;-5.30;99.90
80964;DHT22;70425;59.322;13.486;2023-11-19T03:04:47;-5.30;99.90
80964;DHT22;70425;59.322;13.486;2023-11-19T03:11:55;-5.20;99.90
80964;DHT22;70425;59.322;13.486;2023-11-19T03:14:44;-5.20;99.90
80964;DHT22;70425;59.322;13.486;2023-11-19T03:17:33;-5.20;99.90
80964;DHT22;70425;59.322;13.486;2023-11-19T03:20:27;-5.10;99.90
80964;DHT22;70425;59.322;13.486;2023-11-19T03:23:17;-5.20;99.90
80964;DHT22;70425;59.322;13.486;2023-11-19T03:26:07;-5.20;99.90
80964;DHT22;70425;59.322;13.486;2023-11-19T03:28:56;-5.20;99.90
80964;DHT22;70425;59.322;13.486;2023-11-19T03:31:45;-5.30;99.90
80964;DHT22;70425;59.322;13.486;2023-11-19T03:34:34;-5.20;99.90
80964;DHT22;70425;59.322;13.486;2023-11-19T03:37:22;-5.30;99.90
80964;DHT22;70425;59.322;13.486;2023-11-19T03:40:12;-5.50;99.90
80964;DHT22;70425;59.322;13.486;2023-11-19T03:43:02;-5.40;99.90
80964;DHT22;70425;59.322;13.486;2023-11-19T03:49:41;-5.30;99.90
80964;DHT22;70425;59.322;13.486;2023-11-19T03:52:31;-5.40;99.90
80964;DHT22;70425;59.322;13.486;2023-11-19T03:55:20;-5.30;99.90
80964;DHT22;70425;59.322;13.486;2023-11-19T03:58:09;-5.40;99.90
80964;DHT22;70425;59.322;13.486;2023-11-19T04:00:58;-5.40;99.90
80964;DHT22;70425;59.322;13.486;2023-11-19T04:22:36;-5.20;99.90
80964;DHT22;70425;59.322;13.486;2023-11-19T04:25:25;-5.10;99.90
80964;DHT22;70425;59.322;13.486;2023-11-19T05:11:36;-4.90;99.90
80964;DHT22;70425;59.322;13.486;2023-11-19T05:17:19;-4.90;99.90
80964;DHT22;70425;59.322;13.486;2023-11-19T05:20:09;-5.10;99.90
80964;DHT22;70425;59.322;13.486;2023-11-19T05:22:59;-5.10;99.90
80964;DHT22;70425;59.322;13.486;2023-11-19T05:25:48;-5.10;99.90
80964;DHT22;70425;59.322;13.486;2023-11-19T05:28:38;-5.20;99.90
80964;DHT22;70425;59.322;13.486;2023-11-19T05:31:27;-5.20;99.90
80964;DHT22;70425;59.322;13.486;2023-11-19T05:34:15;-5.20;99.90
80964;DHT22;70425;59.322;13.486;2023-11-19T05:37:04;-5.20;99.90
80964;DHT22;70425;59.322;13.486;2023-11-19T05:39:53;-5.20;99.90
80964;DHT22;70425;59.322;13.486;2023-11-19T05:42:42;-5.20;99.90
80964;DHT22;70425;59.322;13.486;2023-11-19T05:55:31;-5.20;99.90
80964;DHT22;70425;59.322;13.486;2023-11-19T05:58:24;-5.10;99.90
80964;DHT22;70425;59.322;13.486;2023-11-19T06:01:15;-5.00;99.90
80964;DHT22;70425;59.322;13.486;2023-11-19T06:17:09;-5.00;99.90
80964;DHT22;70425;59.322;13.486;2023-11-19T06:22:41;-4.80;99.90
80964;DHT22;70425;59.322;13.486;2023-11-19T06:25:31;-4.80;99.90
80964;DHT22;70425;59.322;13.486;2023-11-19T06:28:20;-4.90;99.90
80964;DHT22;70425;59.322;13.486;2023-11-19T06:31:09;-4.90;99.90
80964;DHT22;70425;59.322;13.486;2023-11-19T06:36:42;-4.80;99.90
80964;DHT22;70425;59.322;13.486;2023-11-19T06:39:30;-4.80;99.90
80964;DHT22;70425;59.322;13.486;2023-11-19T06:42:18;-4.80;99.90
80964;DHT22;70425;59.322;13.486;2023-11-19T06:45:08;-4.80;99.90
80964;DHT22;70425;59.322;13.486;2023-11-19T06:50:44;-4.70;99.90
80964;DHT22;70425;59.322;13.486;2023-11-19T06:53:33;-4.70;99.90
80964;DHT22;70425;59.322;13.486;2023-11-19T06:56:25;-4.70;99.90
80964;DHT22;70425;59.322;13.486;2023-11-19T06:59:14;-4.70;99.90
80964;DHT22;70425;59.322;13.486;2023-11-19T07:02:03;-4.70;99.90
80964;DHT22;70425;59.322;13.486;2023-11-19T07:04:52;-4.70;99.90
80964;DHT22;70425;59.322;13.486;2023-11-19T07:07:42;-4.60;99.90
80964;DHT22;70425;59.322;13.486;2023-11-19T07:24:39;-4.60;99.90
80964;DHT22;70425;59.322;13.486;2023-11-19T07:43:05;-4.40;99.90
80964;DHT22;70425;59.322;13.486;2023-11-19T08:06:01;-4.20;99.90
80964;DHT22;70425;59.322;13.486;2023-11-19T08:08:50;-4.30;99.90
80964;DHT22;70425;59.322;13.486;2023-11-19T08:11:39;-4.30;99.90
80964;DHT22;70425;59.322;13.486;2023-11-19T08:14:28;-4.40;99.90
80964;DHT22;70425;59.322;13.486;2023-11-19T08:17:17;-4.30;99.90
80964;DHT22;70425;59.322;13.486;2023-11-19T08:36:41;-4.30;99.90
80964;DHT22;70425;59.322;13.486;2023-11-19T08:39:31;-4.30;99.90
80964;DHT22;70425;59.322;13.486;2023-11-19T08:42:20;-4.20;99.90
80964;DHT22;70425;59.322;13.486;2023-11-19T08:45:10;-4.20;99.90
80964;DHT22;70425;59.322;13.486;2023-11-19T08:50:43;-4.10;99.90
80964;DHT22;70425;59.322;13.486;2023-11-19T08:53:31;-4.10;99.90
80964;DHT22;70425;59.322;13.486;2023-11-19T08:59:44;-4.00;99.90
80964;DHT22;70425;59.322;13.486;2023-11-19T09:02:33;-4.00;99.90
80964;DHT22;70425;59.322;13.486;2023-11-19T09:05:22;-3.80;99.90
80964;DHT22;70425;59.322;13.486;2023-11-19T09:08:10;-3.90;99.90
80964;DHT22;70425;59.322;13.486;2023-11-19T09:10:59;-3.80;99.90
80964;DHT22;70425;59.322;13.486;2023-11-19T09:13:48;-3.70;99.90
80964;DHT22;70425;59.322;13.486;2023-11-19T09:16:36;-3.70;99.90
80964;DHT22;70425;59.322;13.486;2023-11-19T09:19:25;-3.60;99.90
80964;DHT22;70425;59.322;13.486;2023-11-19T09:22:14;-3.50;99.90
80964;DHT22;70425;59.322;13.486;2023-11-19T09:25:05;-3.50;99.90
80964;DHT22;70425;59.322;13.486;2023-11-19T09:27:53;-3.50;99.90
80964;DHT22;70425;59.322;13.486;2023-11-19T09:30:41;-3.50;99.90
80964;DHT22;70425;59.322;13.486;2023-11-19T09:33:30;-3.50;99.90
80964;DHT22;70425;59.322;13.486;2023-11-19T09:36:19;-3.40;99.90
80964;DHT22;70425;59.322;13.486;2023-11-19T09:39:08;-3.30;99.90
80964;DHT22;70425;59.322;13.486;2023-11-19T09:41:56;-3.30;99.90
80964;DHT22;70425;59.322;13.486;2023-11-19T09:44:46;-3.30;99.90
80964;DHT22;70425;59.322;13.486;2023-11-19T09:47:40;-3.20;99.90
80964;DHT22;70425;59.322;13.486;2023-11-19T09:53:39;-3.20;99.90
80964;DHT22;70425;59.322;13.486;2023-11-19T10:22:37;-2.90;99.90
80964;DHT22;70425;59.322;13.486;2023-11-19T10:25:27;-2.90;99.90
80964;DHT22;70425;59.322;13.486;2023-11-19T10:28:16;-2.90;99.90
80964;DHT22;70425;59.322;13.486;2023-11-19T10:31:06;-3.00;99.90
80964;DHT22;70425;59.322;13.486;2023-11-19T10:33:54;-2.90;99.90
80964;DHT22;70425;59.322;13.486;2023-11-19T10:36:44;-2.80;99.90
80964;DHT22;70425;59.322;13.486;2023-11-19T10:39:54;-2.80;99.90
80964;DHT22;70425;59.322;13.486;2023-11-19T10:42:43;-2.70;99.90
80964;DHT22;70425;59.322;13.486;2023-11-19T10:45:32;-2.60;99.90
80964;DHT22;70425;59.322;13.486;2023-11-19T10:48:21;-2.60;99.90
80964;DHT22;70425;59.322;13.486;2023-11-19T10:51:11;-2.60;99.90
80964;DHT22;70425;59.322;13.486;2023-11-19T10:54:04;-2.50;99.90
80964;DHT22;70425;59.322;13.486;2023-11-19T11:13:47;-2.70;99.90
80964;DHT22;70425;59.322;13.486;2023-11-19T11:16:37;-2.80;99.90
80964;DHT22;70425;59.322;13.486;2023-11-19T11:19:26;-2.80;99.90
80964;DHT22;70425;59.322;13.486;2023-11-19T11:39:47;-2.40;99.90
80964;DHT22;70425;59.322;13.486;2023-11-19T11:42:38;-2.60;99.90
80964;DHT22;70425;59.322;13.486;2023-11-19T11:45:40;-2.70;99.90
80964;DHT22;70425;59.322;13.486;2023-11-19T11:48:31;-2.70;99.90
80964;DHT22;70425;59.322;13.486;2023-11-19T11:54:08;-2.60;99.90
80964;DHT22;70425;59.322;13.486;2023-11-19T11:57:06;-2.60;99.90
80964;DHT22;70425;59.322;13.486;2023-11-19T11:59:54;-2.60;99.90
80964;DHT22;70425;59.322;13.486;2023-11-19T12:02:45;-2.70;99.90
80964;DHT22;70425;59.322;13.486;2023-11-19T12:05:35;-2.60;99.90
80964;DHT22;70425;59.322;13.486;2023-11-19T12:08:30;-2.60;99.90
80964;DHT22;70425;59.322;13.486;2023-11-19T12:11:19;-2.60;99.90
80964;DHT22;70425;59.322;13.486;2023-11-19T12:27:37;-2.70;99.90
80964;DHT22;70425;59.322;13.486;2023-11-19T12:42:10;-2.60;99.90
80964;DHT22;70425;59.322;13.486;2023-11-19T12:44:59;-2.50;99.90
80964;DHT22;70425;59.322;13.486;2023-11-19T12:50:53;-2.60;99.90
80964;DHT22;70425;59.322;13.486;2023-11-19T12:53:49;-2.60;99.90
80964;DHT22;70425;59.322;13.486;2023-11-19T12:56:39;-2.60;99.90
80964;DHT22;70425;59.322;13.486;2023-11-19T12:59:31;-2.70;99.90
80964;DHT22;70425;59.322;13.486;2023-11-19T13:02:20;-2.60;99.90
80964;DHT22;70425;59.322;13.486;2023-11-19T13:05:25;-2.60;99.90
80964;DHT22;70425;59.322;13.486;2023-11-19T13:23:41;-2.80;99.90
80964;DHT22;70425;59.322;13.486;2023-11-19T14:06:18;-2.70;99.90
80964;DHT22;70425;59.322;13.486;2023-11-19T14:25:14;-2.80;99.90
80964;DHT22;70425;59.322;13.486;2023-11-19T14:30:56;-2.70;99.90
80964;DHT22;70425;59.322;13.486;2023-11-19T14:33:44;-2.70;99.90
80964;DHT22;70425;59.322;13.486;2023-11-19T14:36:33;-2.80;99.90
80964;DHT22;70425;59.322;13.486;2023-11-19T14:39:21;-2.70;99.90
80964;DHT22;70425;59.322;13.486;2023-11-19T14:42:10;-2.70;99.90
80964;DHT22;70425;59.322;13.486;2023-11-19T14:44:59;-2.80;99.90
80964;DHT22;70425;59.322;13.486;2023-11-19T14:51:32;-2.80;99.90
80964;DHT22;70425;59.322;13.486;2023-11-19T14:54:23;-2.80;99.90
80964;DHT22;70425;59.322;13.486;2023-11-19T14:57:13;-2.60;99.90
80964;DHT22;70425;59.322;13.486;2023-11-19T15:00:03;-2.60;99.90
80964;DHT22;70425;59.322;13.486;2023-11-19T15:02:55;-2.50;99.90
80964;DHT22;70425;59.322;13.486;2023-11-19T15:05:44;-2.40;99.90
80964;DHT22;70425;59.322;13.486;2023-11-19T15:08:33;-2.50;99.90
80964;DHT22;70425;59.322;13.486;2023-11-19T15:14:08;-2.30;99.90
80964;DHT22;70425;59.322;13.486;2023-11-19T15:16:56;-2.20;99.90
80964;DHT22;70425;59.322;13.486;2023-11-19T15:19:45;-2.20;99.90
80964;DHT22;70425;59.322;13.486;2023-11-19T15:22:34;-2.10;99.90
80964;DHT22;70425;59.322;13.486;2023-11-19T15:25:23;-2.10;99.90
80964;DHT22;70425;59.322;13.486;2023-11-19T15:28:31;-2.00;99.90
80964;DHT22;70425;59.322;13.486;2023-11-19T15:31:19;-2.00;99.90
80964;DHT22;70425;59.322;13.486;2023-11-19T15:34:08;-1.90;99.90
80964;DHT22;70425;59.322;13.486;2023-11-19T15:36:59;-1.90;99.90
80964;DHT22;70425;59.322;13.486;2023-11-19T15:39:58;-1.90;99.90
80964;DHT22;70425;59.322;13.486;2023-11-19T15:42:47;-2.00;99.90
80964;DHT22;70425;59.322;13.486;2023-11-19T16:15:48;-1.30;99.90
80964;DHT22;70425;59.322;13.486;2023-11-19T16:18:37;-0.90;99.90
80964;DHT22;70425;59.322;13.486;2023-11-19T16:21:26;-0.90;99.90
80964;DHT22;70425;59.322;13.486;2023-11-19T16:24:16;-1.00;99.90
80964;DHT22;70425;59.322;13.486;2023-11-19T16:27:05;-0.90;99.90
80964;DHT22;70425;59.322;13.486;2023-11-19T16:29:55;-1.00;99.90
80964;DHT22;70425;59.322;13.486;2023-11-19T16:32:53;-1.00;99.90
80964;DHT22;70425;59.322;13.486;2023-11-19T16:35:43;-1.00;99.90
80964;DHT22;70425;59.322;13.486;2023-11-19T16:38:32;-1.00;99.90
80964;DHT22;70425;59.322;13.486;2023-11-19T16:55:19;-1.10;99.90
80964;DHT22;70425;59.322;13.486;2023-11-19T17:00:47;-1.10;99.90
80964;DHT22;70425;59.322;13.486;2023-11-19T17:03:36;-1.10;99.90
80964;DHT22;70425;59.322;13.486;2023-11-19T17:06:25;-1.10;99.90
80964;DHT22;70425;59.322;13.486;2023-11-19T17:09:14;-1.10;99.90
80964;DHT22;70425;59.322;13.486;2023-11-19T17:12:03;-1.20;99.90
80964;DHT22;70425;59.322;13.486;2023-11-19T17:14:51;-1.10;99.90
80964;DHT22;70425;59.322;13.486;2023-11-19T17:17:42;-1.10;99.90
80964;DHT22;70425;59.322;13.486;2023-11-19T17:20:30;-1.10;99.90
80964;DHT22;70425;59.322;13.486;2023-11-19T17:26:06;-1.10;99.90
80964;DHT22;70425;59.322;13.486;2023-11-19T17:28:55;-1.10;99.90
80964;DHT22;70425;59.322;13.486;2023-11-19T17:31:45;-1.10;99.90
80964;DHT22;70425;59.322;13.486;2023-11-19T17:34:33;-1.10;99.90
80964;DHT22;70425;59.322;13.486;2023-11-19T17:37:23;-1.20;99.90
80964;DHT22;70425;59.322;13.486;2023-11-19T17:40:12;-1.20;99.90
80964;DHT22;70425;59.322;13.486;2023-11-19T17:43:02;-1.20;99.90
80964;DHT22;70425;59.322;13.486;2023-11-19T17:45:52;-1.20;99.90
80964;DHT22;70425;59.322;13.486;2023-11-19T17:48:41;-1.20;99.90
80964;DHT22;70425;59.322;13.486;2023-11-19T17:51:30;-1.30;99.90
80964;DHT22;70425;59.322;13.486;2023-11-19T17:54:18;-1.30;99.90
80964;DHT22;70425;59.322;13.486;2023-11-19T17:59:48;-1.30;99.90
80964;DHT22;70425;59.322;13.486;2023-11-19T18:05:19;-1.40;99.90
80964;DHT22;70425;59.322;13.486;2023-11-19T18:08:08;-1.40;99.90
80964;DHT22;70425;59.322;13.486;2023-11-19T18:10:57;-1.40;99.90
80964;DHT22;70425;59.322;13.486;2023-11-19T18:13:46;-1.30;99.90
80964;DHT22;70425;59.322;13.486;2023-11-19T18:16:36;-1.40;99.90
80964;DHT22;70425;59.322;13.486;2023-11-19T18:19:25;-1.40;99.90
80964;DHT22;70425;59.322;13.486;2023-11-19T18:22:13;-1.40;99.90
80964;DHT22;70425;59.322;13.486;2023-11-19T18:27:42;-1.50;99.90
80964;DHT22;70425;59.322;13.486;2023-11-19T18:30:30;-1.50;99.90
80964;DHT22;70425;59.322;13.486;2023-11-19T18:33:18;-1.50;99.90
80964;DHT22;70425;59.322;13.486;2023-11-19T18:36:10;-1.40;99.90
80964;DHT22;70425;59.322;13.486;2023-11-19T18:41:40;-1.50;99.90
80964;DHT22;70425;59.322;13.486;2023-11-19T18:47:12;-1.50;99.90
80964;DHT22;70425;59.322;13.486;2023-11-19T18:50:01;-1.60;99.90
80964;DHT22;70425;59.322;13.486;2023-11-19T18:52:50;-1.50;99.90
80964;DHT22;70425;59.322;13.486;2023-11-19T18:55:38;-1.50;99.90
80964;DHT22;70425;59.322;13.486;2023-11-19T18:58:27;-1.50;99.90
80964;DHT22;70425;59.322;13.486;2023-11-19T19:01:15;-1.50;99.90
80964;DHT22;70425;59.322;13.486;2023-11-19T19:04:05;-1.50;99.90
80964;DHT22;70425;59.322;13.486;2023-11-19T19:06:54;-1.60;99.90
80964;DHT22;70425;59.322;13.486;2023-11-19T19:09:43;-1.60;99.90
80964;DHT22;70425;59.322;13.486;2023-11-19T19:12:32;-1.50;99.90
80964;DHT22;70425;59.322;13.486;2023-11-19T19:15:22;-1.50;99.90
80964;DHT22;70425;59.322;13.486;2023-11-19T19:20:51;-1.60;99.90
80964;DHT22;70425;59.322;13.486;2023-11-19T19:23:40;-1.50;99.90
80964;DHT22;70425;59.322;13.486;2023-11-19T19:26:28;-1.50;99.90
80964;DHT22;70425;59.322;13.486;2023-11-19T19:29:18;-1.50;99.90
80964;DHT22;70425;59.322;13.486;2023-11-19T19:32:07;-1.50;99.90
80964;DHT22;70425;59.322;13.486;2023-11-19T19:34:55;-1.40;99.90
80964;DHT22;70425;59.322;13.486;2023-11-19T19:37:44;-1.40;99.90
80964;DHT22;70425;59.322;13.486;2023-11-19T19:40:33;-1.40;99.90
80964;DHT22;70425;59.322;13.486;2023-11-19T19:43:23;-1.40;99.90
80964;DHT22;70425;59.322;13.486;2023-11-19T19:46:12;-1.40;99.90
80964;DHT22;70425;59.322;13.486;2023-11-19T19:49:00;-1.40;99.90
80964;DHT22;70425;59.322;13.486;2023-11-19T19:54:30;-1.50;99.90
80964;DHT22;70425;59.322;13.486;2023-11-19T19:57:21;-1.50;99.90
80964;DHT22;70425;59.322;13.486;2023-11-19T20:00:12;-1.50;99.90
80964;DHT22;70425;59.322;13.486;2023-11-19T20:05:41;-1.50;99.90
80964;DHT22;70425;59.322;13.486;2023-11-19T20:08:32;-1.50;99.90
80964;DHT22;70425;59.322;13.486;2023-11-19T20:11:20;-1.50;99.90
80964;DHT22;70425;59.322;13.486;2023-11-19T20:14:09;-1.50;99.90
80964;DHT22;70425;59.322;13.486;2023-11-19T20:16:58;-1.50;99.90
80964;DHT22;70425;59.322;13.486;2023-11-19T20:19:46;-1.60;99.90
80964;DHT22;70425;59.322;13.486;2023-11-19T20:22:34;-1.60;99.90
80964;DHT22;70425;59.322;13.486;2023-11-19T20:25:24;-1.50;99.90
80964;DHT22;70425;59.322;13.486;2023-11-19T20:28:12;-1.60;99.90
80964;DHT22;70425;59.322;13.486;2023-11-19T20:31:01;-1.50;99.90
80964;DHT22;70425;59.322;13.486;2023-11-19T20:33:50;-1.50;99.90
80964;DHT22;70425;59.322;13.486;2023-11-19T20:36:39;-1.60;99.90
80964;DHT22;70425;59.322;13.486;2023-11-19T20:42:12;-1.50;99.90
80964;DHT22;70425;59.322;13.486;2023-11-19T20:47:40;-1.50;99.90
80964;DHT22;70425;59.322;13.486;2023-11-19T20:50:31;-1.50;99.90
80964;DHT22;70425;59.322;13.486;2023-11-19T20:53:21;-1.60;99.90
80964;DHT22;70425;59.322;13.486;2023-11-19T20:56:10;-1.60;99.90
80964;DHT22;70425;59.322;13.486;2023-11-19T20:58:58;-1.70;99.90
80964;DHT22;70425;59.322;13.486;2023-11-19T21:01:48;-1.60;99.90
80964;DHT22;70425;59.322;13.486;2023-11-19T21:04:36;-1.60;99.90
80964;DHT22;70425;59.322;13.486;2023-11-19T21:07:25;-1.50;99.90
80964;DHT22;70425;59.322;13.486;2023-11-19T21:10:14;-1.40;99.90
80964;DHT22;70425;59.322;13.486;2023-11-19T21:13:03;-1.50;99.90
80964;DHT22;70425;59.322;13.486;2023-11-19T21:15:51;-1.50;99.90
80964;DHT22;70425;59.322;13.486;2023-11-19T21:18:41;-1.50;99.90
80964;DHT22;70425;59.322;13.486;2023-11-19T21:21:30;-1.50;99.90
80964;DHT22;70425;59.322;13.486;2023-11-19T21:26:59;-1.50;99.90
80964;DHT22;70425;59.322;13.486;2023-11-19T21:29:47;-1.50;99.90
80964;DHT22;70425;59.322;13.486;2023-11-19T21:32:36;-1.50;99.90
80964;DHT22;70425;59.322;13.486;2023-11-19T21:35:24;-1.50;99.90
80964;DHT22;70425;59.322;13.486;2023-11-19T21:38:13;-1.50;99.90
80964;DHT22;70425;59.322;13.486;2023-11-19T21:41:02;-1.40;99.90
80964;DHT22;70425;59.322;13.486;2023-11-19T21:43:51;-1.40;99.90
80964;DHT22;70425;59.322;13.486;2023-11-19T21:46:40;-1.50;99.90
80964;DHT22;70425;59.322;13.486;2023-11-19T21:49:28;-1.60;99.90
80964;DHT22;70425;59.322;13.486;2023-11-19T21:52:17;-1.60;99.90
80964;DHT22;70425;59.322;13.486;2023-11-19T21:55:06;-1.60;99.90
80964;DHT22;70425;59.322;13.486;2023-11-19T21:57:56;-1.60;99.90
80964;DHT22;70425;59.322;13.486;2023-11-19T22:00:45;-1.60;99.90
80964;DHT22;70425;59.322;13.486;2023-11-19T22:06:18;-1.60;99.90
80964;DHT22;70425;59.322;13.486;2023-11-19T22:09:07;-1.50;99.90
80964;DHT22;70425;59.322;13.486;2023-11-19T22:11:57;-1.50;99.90
80964;DHT22;70425;59.322;13.486;2023-11-19T22:14:46;-1.70;99.90
80964;DHT22;70425;59.322;13.486;2023-11-19T22:17:35;-1.80;99.90
80964;DHT22;70425;59.322;13.486;2023-11-19T22:20:25;-1.80;99.90
80964;DHT22;70425;59.322;13.486;2023-11-19T22:23:14;-1.70;99.90
80964;DHT22;70425;59.322;13.486;2023-11-19T22:26:03;-1.60;99.90
80964;DHT22;70425;59.322;13.486;2023-11-19T22:28:52;-1.70;99.90
80964;DHT22;70425;59.322;13.486;2023-11-19T22:31:41;-1.80;99.90
80964;DHT22;70425;59.322;13.486;2023-11-19T22:34:29;-1.80;99.90
80964;DHT22;70425;59.322;13.486;2023-11-19T22:37:17;-1.70;99.90
80964;DHT22;70425;59.322;13.486;2023-11-19T22:40:08;-1.80;99.90
80964;DHT22;70425;59.322;13.486;2023-11-19T22:42:58;-1.80;99.90
80964;DHT22;70425;59.322;13.486;2023-11-19T22:48:29;-1.70;99.90
80964;DHT22;70425;59.322;13.486;2023-11-19T22:51:18;-1.80;99.90
80964;DHT22;70425;59.322;13.486;2023-11-19T22:54:08;-1.70;99.90
80964;DHT22;70425;59.322;13.486;2023-11-19T22:56:56;-1.80;99.90
80964;DHT22;70425;59.322;13.486;2023-11-19T22:59:45;-1.90;99.90
80964;DHT22;70425;59.322;13.486;2023-11-19T23:02:34;-1.80;99.90
80964;DHT22;70425;59.322;13.486;2023-11-19T23:05:23;-1.90;99.90
80964;DHT22;70425;59.322;13.486;2023-11-19T23:08:12;-1.90;99.90
80964;DHT22;70425;59.322;13.486;2023-11-19T23:11:01;-1.80;99.90
80964;DHT22;70425;59.322;13.486;2023-11-19T23:13:49;-1.90;99.90
80964;DHT22;70425;59.322;13.486;2023-11-19T23:16:38;-1.90;99.90
80964;DHT22;70425;59.322;13.486;2023-11-19T23:19:27;-1.90;99.90
80964;DHT22;70425;59.322;13.486;2023-11-19T23:22:16;-1.80;99.90
80964;DHT22;70425;59.322;13.486;2023-11-19T23:25:06;-1.90;99.90
80964;DHT22;70425;59.322;13.486;2023-11-19T23:27:55;-2.00;99.90
80964;DHT22;70425;59.322;13.486;2023-11-19T23:30:44;-1.90;99.90
80964;DHT22;70425;59.322;13.486;2023-11-19T23:33:32;-1.80;99.90
80964;DHT22;70425;59.322;13.486;2023-11-19T23:36:21;-2.00;99.90
80964;DHT22;70425;59.322;13.486;2023-11-19T23:39:09;-2.00;99.90
80964;DHT22;70425;59.322;13.486;2023-11-19T23:42:00;-1.90;99.90
80964;DHT22;70425;59.322;13.486;2023-11-19T23:44:49;-1.90;99.90
80964;DHT22;70425;59.322;13.486;2023-11-19T23:47:37;-1.90;99.90
80964;DHT22;70425;59.322;13.486;2023-11-19T23:50:27;-2.00;99.90
80964;DHT22;70425;59.322;13.486;2023-11-19T23:53:15;-1.90;99.90
80964;DHT22;70425;59.322;13.486;2023-11-19T23:56:07;-2.00;99.90
80964;DHT22;70425;59.322;13.486;2023-11-19T23:58:56;-2.00;99.90
